Julia Oldendorff — 9HA3578 — position and weather

sailwx.info

Track history (hours):
 
Tides and Currents Weather Stations Pressure Air Temp Water Temp Dewpoint Dewpoint Depression Visibility Wind Speed Wind Dir Waves Ship Positions

Julia Oldendorff

Last reported at 2018-Jan-20 01:00 UTC. Time now 2018-Jan-20 01:29 UTC.
Position N 05°38' E 000°01'.

Length 200 m; draft 7.9 m.

Type: Cargo ship. MMSI: 229752000.

Date/timePositionNaut miles runAvg speedWind from/ knotsBaromVisibWave heightAir tempDewpointWater temp
2018-Jan-20 01:00N 05°38' E 000°01'0 0.0
2018-Jan-20 00:30N 05°38' E 000°01'0 0.0
2018-Jan-20 00:00N 05°38' E 000°01'0 0.0
2018-Jan-19 23:30N 05°38' E 000°01'0 0.0
2018-Jan-19 23:00N 05°38' E 000°01'0 0.0
2018-Jan-19 22:30N 05°38' E 000°01'0 0.0
2018-Jan-19 22:00N 05°38' E 000°01'0 0.0
2018-Jan-19 21:30N 05°38' E 000°01'0 0.0
2018-Jan-19 21:00N 05°38' E 000°01'0 0.0
2018-Jan-19 20:30N 05°38' E 000°01'0 0.0
2018-Jan-19 20:00N 05°38' E 000°01'0 0.0
2018-Jan-19 19:30N 05°38' E 000°01'0 0.0
2018-Jan-19 19:00N 05°38' E 000°01'0 0.0
2018-Jan-19 18:30N 05°38' E 000°01'0 0.0
2018-Jan-19 18:00N 05°38' E 000°01'0 0.0
2018-Jan-19 17:30N 05°38' E 000°01'0 0.0
2018-Jan-19 17:00N 05°38' E 000°01'0 0.0
2018-Jan-19 16:30N 05°38' E 000°01'0 0.0
2018-Jan-19 16:00N 05°38' E 000°01'0 0.0
2018-Jan-19 15:30N 05°38' E 000°01'0 0.0
2018-Jan-19 15:00N 05°38' E 000°01'0 0.0
2018-Jan-19 14:30N 05°38' E 000°01'0 0.0
2018-Jan-19 14:00N 05°38' E 000°01'0 0.0
2018-Jan-19 13:30N 05°38' E 000°01'0 0.0
2018-Jan-19 13:00N 05°38' E 000°01'0 0.0
2018-Jan-19 12:30N 05°38' E 000°01'0 0.0
2018-Jan-19 12:00N 05°38' E 000°01'0 0.0
2018-Jan-19 11:21N 05°38' E 000°01'0 0.0
2018-Jan-19 11:00N 05°38' E 000°01'0 0.0
2018-Jan-19 10:30N 05°38' E 000°01'0 0.0
2018-Jan-19 10:00N 05°38' E 000°01'0 0.0
2018-Jan-19 09:30N 05°38' E 000°01'0 0.0
2018-Jan-19 09:00N 05°38' E 000°01'0 0.0
2018-Jan-19 08:30N 05°38' E 000°01'0 0.0
2018-Jan-19 08:00N 05°38' E 000°01'0 0.0
2018-Jan-19 07:30N 05°38' E 000°01'1 1.2
2018-Jan-19 07:00N 05°38' E 000°01'2 3.7
2018-Jan-19 06:30N 05°37' E 000°03'4 7.1
2018-Jan-19 06:00N 05°34' E 000°05'3 6.7
2018-Jan-19 05:29N 05°32' E 000°07'510.1
2018-Jan-19 05:00N 05°27' E 000°08'713.3
2018-Jan-19 04:30N 05°21' E 000°04'714.1
2018-Jan-19 04:00N 05°16' W 000°01'714.2
2018-Jan-19 03:30N 05°12' W 000°06'714.4
2018-Jan-19 03:00N 05°07' W 000°12'714.3
2018-Jan-19 02:30N 05°03' W 000°18'  
2018-Jan-12 14:57N 08°30' W 013°13'0 0.0
2018-Jan-12 14:30N 08°30' W 013°13'0 0.0
2018-Jan-12 12:48N 08°30' W 013°13'0 0.1
2018-Jan-12 12:30N 08°30' W 013°13'0 0.0
2018-Jan-12 11:30N 08°30' W 013°13'0 0.1
2018-Jan-12 11:00N 08°30' W 013°13'1 0.9
2018-Jan-12 10:22N 08°30' W 013°13'1 2.0
2018-Jan-12 10:00N 08°30' W 013°14'0 0.9
2018-Jan-12 09:30N 08°30' W 013°15'0 0.3
2018-Jan-12 08:15N 08°30' W 013°14'0 0.5
2018-Jan-12 08:00N 08°30' W 013°14'0 0.3
2018-Jan-12 07:30N 08°30' W 013°14'1 2.7
2018-Jan-12 07:00N 08°30' W 013°16'3 6.3
2018-Jan-12 06:30N 08°30' W 013°19'5 8.3
2018-Jan-12 05:53N 08°30' W 013°24'3 7.5
2018-Jan-12 05:30N 08°29' W 013°27'0 0.9
2018-Jan-12 05:00N 08°29' W 013°27'0 0.0
2018-Jan-12 04:30N 08°29' W 013°27'0 0.0
2018-Jan-12 04:00N 08°29' W 013°27'0 0.1
2018-Jan-12 03:21N 08°29' W 013°27'1 3.4
2018-Jan-12 03:00N 08°29' W 013°28'4 8.2
2018-Jan-12 02:30N 08°29' W 013°32'612.0
2018-Jan-12 02:00N 08°30' W 013°38'713.3
2018-Jan-12 01:29N 08°34' W 013°44'713.8
2018-Jan-12 01:00N 08°37' W 013°50'714.0
2018-Jan-12 00:29N 08°39' W 013°57'713.9
2018-Jan-12 00:00N 08°42' W 014°04'713.9
2018-Jan-11 23:30N 08°44' W 014°10'714.2
2018-Jan-11 23:00N 08°47' W 014°17'713.9
2018-Jan-11 22:30N 08°49' W 014°23'714.2
2018-Jan-11 22:00N 08°52' W 014°30'714.3
2018-Jan-11 21:30N 08°54' W 014°37'714.3
2018-Jan-11 21:00N 08°57' W 014°44'714.5
2018-Jan-11 20:30N 08°59' W 014°50'714.5
2018-Jan-11 20:00N 09°02' W 014°57'714.2
2018-Jan-11 19:30N 09°06' W 015°03'714.5
2018-Jan-11 19:00N 09°10' W 015°09'714.5
2018-Jan-11 18:30N 09°15' W 015°15'714.5
2018-Jan-11 18:00N 09°19' W 015°21'714.5
2018-Jan-11 17:30N 09°23' W 015°27'714.4
2018-Jan-11 17:00N 09°27' W 015°33'714.1
2018-Jan-11 16:30N 09°32' W 015°38'1013.8
2018-Jan-11 15:48N 09°37' W 015°46'413.8
2018-Jan-11 15:30N 09°40' W 015°50'713.5
2018-Jan-11 15:00N 09°44' W 015°55'713.5
2018-Jan-11 14:30N 09°48' W 016°01'713.4
2018-Jan-11 14:00N 09°52' W 016°06'713.4
2018-Jan-11 13:31N 09°56' W 016°12'713.7
2018-Jan-11 13:00N 10°00' W 016°17'713.7
2018-Jan-11 12:30N 10°04' W 016°23'713.7
2018-Jan-11 12:01N 10°08' W 016°28'  
Track history (hours):
 
Tides and Currents Weather Stations Pressure Air Temp Water Temp Dewpoint Dewpoint Depression Visibility Wind Speed Wind Dir Waves Ship Positions

Julia Oldendorff

Last reported at 2018-Jan-20 01:00 UTC. Time now 2018-Jan-20 01:29 UTC.
Position N 05°38' E 000°01'.

Length 200 m; draft 7.9 m.

Type: Cargo ship. MMSI: 229752000.

Date/timePositionNaut miles runAvg speedWind from/ knotsBaromVisibWave heightAir tempDewpointWater temp
2018-Jan-20 01:00N 05°38' E 000°01'0 0.0
2018-Jan-20 00:30N 05°38' E 000°01'0 0.0
2018-Jan-20 00:00N 05°38' E 000°01'0 0.0
2018-Jan-19 23:30N 05°38' E 000°01'0 0.0
2018-Jan-19 23:00N 05°38' E 000°01'0 0.0
2018-Jan-19 22:30N 05°38' E 000°01'0 0.0
2018-Jan-19 22:00N 05°38' E 000°01'0 0.0
2018-Jan-19 21:30N 05°38' E 000°01'0 0.0
2018-Jan-19 21:00N 05°38' E 000°01'0 0.0
2018-Jan-19 20:30N 05°38' E 000°01'0 0.0
2018-Jan-19 20:00N 05°38' E 000°01'0 0.0
2018-Jan-19 19:30N 05°38' E 000°01'0 0.0
2018-Jan-19 19:00N 05°38' E 000°01'0 0.0
2018-Jan-19 18:30N 05°38' E 000°01'0 0.0
2018-Jan-19 18:00N 05°38' E 000°01'0 0.0
2018-Jan-19 17:30N 05°38' E 000°01'0 0.0
2018-Jan-19 17:00N 05°38' E 000°01'0 0.0
2018-Jan-19 16:30N 05°38' E 000°01'0 0.0
2018-Jan-19 16:00N 05°38' E 000°01'0 0.0
2018-Jan-19 15:30N 05°38' E 000°01'0 0.0
2018-Jan-19 15:00N 05°38' E 000°01'0 0.0
2018-Jan-19 14:30N 05°38' E 000°01'0 0.0
2018-Jan-19 14:00N 05°38' E 000°01'0 0.0
2018-Jan-19 13:30N 05°38' E 000°01'0 0.0
2018-Jan-19 13:00N 05°38' E 000°01'0 0.0
2018-Jan-19 12:30N 05°38' E 000°01'0 0.0
2018-Jan-19 12:00N 05°38' E 000°01'0 0.0
2018-Jan-19 11:21N 05°38' E 000°01'0 0.0
2018-Jan-19 11:00N 05°38' E 000°01'0 0.0
2018-Jan-19 10:30N 05°38' E 000°01'0 0.0
2018-Jan-19 10:00N 05°38' E 000°01'0 0.0
2018-Jan-19 09:30N 05°38' E 000°01'0 0.0
2018-Jan-19 09:00N 05°38' E 000°01'0 0.0
2018-Jan-19 08:30N 05°38' E 000°01'0 0.0
2018-Jan-19 08:00N 05°38' E 000°01'0 0.0
2018-Jan-19 07:30N 05°38' E 000°01'1 1.2
2018-Jan-19 07:00N 05°38' E 000°01'2 3.7
2018-Jan-19 06:30N 05°37' E 000°03'4 7.1
2018-Jan-19 06:00N 05°34' E 000°05'3 6.7
2018-Jan-19 05:29N 05°32' E 000°07'510.1
2018-Jan-19 05:00N 05°27' E 000°08'713.3
2018-Jan-19 04:30N 05°21' E 000°04'714.1
2018-Jan-19 04:00N 05°16' W 000°01'714.2
2018-Jan-19 03:30N 05°12' W 000°06'714.4
2018-Jan-19 03:00N 05°07' W 000°12'714.3
2018-Jan-19 02:30N 05°03' W 000°18'  
2018-Jan-12 14:57N 08°30' W 013°13'0 0.0
2018-Jan-12 14:30N 08°30' W 013°13'0 0.0
2018-Jan-12 12:48N 08°30' W 013°13'0 0.1
2018-Jan-12 12:30N 08°30' W 013°13'0 0.0
2018-Jan-12 11:30N 08°30' W 013°13'0 0.1
2018-Jan-12 11:00N 08°30' W 013°13'1 0.9
2018-Jan-12 10:22N 08°30' W 013°13'1 2.0
2018-Jan-12 10:00N 08°30' W 013°14'0 0.9
2018-Jan-12 09:30N 08°30' W 013°15'0 0.3
2018-Jan-12 08:15N 08°30' W 013°14'0 0.5
2018-Jan-12 08:00N 08°30' W 013°14'0 0.3
2018-Jan-12 07:30N 08°30' W 013°14'1 2.7
2018-Jan-12 07:00N 08°30' W 013°16'3 6.3
2018-Jan-12 06:30N 08°30' W 013°19'5 8.3
2018-Jan-12 05:53N 08°30' W 013°24'3 7.5
2018-Jan-12 05:30N 08°29' W 013°27'0 0.9
2018-Jan-12 05:00N 08°29' W 013°27'0 0.0
2018-Jan-12 04:30N 08°29' W 013°27'0 0.0
2018-Jan-12 04:00N 08°29' W 013°27'0 0.1
2018-Jan-12 03:21N 08°29' W 013°27'1 3.4
2018-Jan-12 03:00N 08°29' W 013°28'4 8.2
2018-Jan-12 02:30N 08°29' W 013°32'612.0
2018-Jan-12 02:00N 08°30' W 013°38'713.3
2018-Jan-12 01:29N 08°34' W 013°44'713.8
2018-Jan-12 01:00N 08°37' W 013°50'714.0
2018-Jan-12 00:29N 08°39' W 013°57'713.9
2018-Jan-12 00:00N 08°42' W 014°04'713.9
2018-Jan-11 23:30N 08°44' W 014°10'714.2
2018-Jan-11 23:00N 08°47' W 014°17'713.9
2018-Jan-11 22:30N 08°49' W 014°23'714.2
2018-Jan-11 22:00N 08°52' W 014°30'714.3
2018-Jan-11 21:30N 08°54' W 014°37'714.3
2018-Jan-11 21:00N 08°57' W 014°44'714.5
2018-Jan-11 20:30N 08°59' W 014°50'714.5
2018-Jan-11 20:00N 09°02' W 014°57'714.2
2018-Jan-11 19:30N 09°06' W 015°03'714.5
2018-Jan-11 19:00N 09°10' W 015°09'714.5
2018-Jan-11 18:30N 09°15' W 015°15'714.5
2018-Jan-11 18:00N 09°19' W 015°21'714.5
2018-Jan-11 17:30N 09°23' W 015°27'714.4
2018-Jan-11 17:00N 09°27' W 015°33'714.1
2018-Jan-11 16:30N 09°32' W 015°38'1013.8
2018-Jan-11 15:48N 09°37' W 015°46'413.8
2018-Jan-11 15:30N 09°40' W 015°50'713.5
2018-Jan-11 15:00N 09°44' W 015°55'713.5
2018-Jan-11 14:30N 09°48' W 016°01'713.4
2018-Jan-11 14:00N 09°52' W 016°06'713.4
2018-Jan-11 13:31N 09°56' W 016°12'713.7
2018-Jan-11 13:00N 10°00' W 016°17'713.7
2018-Jan-11 12:30N 10°04' W 016°23'713.7
2018-Jan-11 12:01N 10°08' W 016°28'  

Dump ship's entire track history